Time;durP1;ratioP1;P1;durP2;ratioP2;P2;SDS_P1;SDS_P2;PMS_P1;PMS_P2;Temp;Humidity;BMP_temperature;BMP_pressure;BME280_temperature;BME280_humidity;BME280_pressure;Samples;Min_cycle;Max_cycle;Signal;HPM_P1;HPM_P2
2021/12/13 00:01:16;;;;;;;8.38;6.63;;;6.10;86.70;;;;;;5116478;28;20653;-57
2021/12/13 00:03:56;;;;;;;10.63;6.25;;;5.90;87.40;;;;;;5115256;27;20199;-55
2021/12/13 00:06:27;;;;;;;6.20;5.60;;;5.90;88.20;;;;;;5116575;28;20294;-57
2021/12/13 00:08:57;;;;;;;7.53;6.05;;;6.10;87.90;;;;;;5116381;28;20222;-56
2021/12/13 00:11:26;;;;;;;5.88;5.28;;;6.30;87.50;;;;;;5116402;28;20204;-56
2021/12/13 00:13:56;;;;;;;6.82;6.03;;;6.40;86.50;;;;;;5116310;28;20246;-57
2021/12/13 00:16:28;;;;;;;7.75;5.43;;;6.40;86.70;;;;;;5116394;28;20279;-56
2021/12/13 00:18:57;;;;;;;6.10;5.50;;;6.50;86.50;;;;;;5114940;28;20203;-57
2021/12/13 00:21:31;;;;;;;9.40;5.85;;;6.60;86.40;;;;;;5116111;28;20223;-57
2021/12/13 00:24:01;;;;;;;7.50;5.95;;;6.60;86.30;;;;;;5116162;28;20226;-56
2021/12/13 00:26:33;;;;;;;11.05;7.00;;;6.60;86.10;;;;;;5116156;28;20287;-56
2021/12/13 00:29:09;;;;;;;6.50;5.35;;;6.70;85.80;;;;;;5116105;28;20210;-57
2021/12/13 00:31:47;;;;;;;10.18;6.38;;;6.70;85.70;;;;;;5115995;28;20568;-57
2021/12/13 00:34:28;;;;;;;7.40;6.40;;;6.60;86.20;;;;;;5114678;28;20206;-57
2021/12/13 00:37:02;;;;;;;6.65;5.78;;;6.60;86.20;;;;;;5114936;28;20222;-57
2021/12/13 00:39:33;;;;;;;9.93;6.30;;;6.70;86.30;;;;;;5115957;28;20234;-56
2021/12/13 00:42:03;;;;;;;7.05;5.97;;;6.80;86.20;;;;;;5115738;28;20235;-56
2021/12/13 00:44:35;;;;;;;8.95;6.65;;;6.80;86.00;;;;;;5115560;28;20342;-56
2021/12/13 00:47:13;;;;;;;6.13;5.53;;;6.80;85.80;;;;;;5115720;28;20290;-56
2021/12/13 00:49:46;;;;;;;8.40;6.13;;;6.50;86.80;;;;;;5114843;28;20203;-56
2021/12/13 00:52:16;;;;;;;11.40;6.55;;;6.40;88.10;;;;;;5115594;28;20200;-56
2021/12/13 00:54:44;;;;;;;6.80;5.78;;;6.40;88.10;;;;;;5115370;27;20210;-57
2021/12/13 00:57:39;;;;;;;6.40;5.35;;;6.30;88.60;;;;;;5115502;28;20210;-56
2021/12/13 01:00:19;;;;;;;7.78;6.00;;;6.40;88.80;;;;;;5115382;27;20210;-58
2021/12/13 01:02:49;;;;;;;8.90;6.45;;;6.30;88.90;;;;;;5113964;28;20269;-56
2021/12/13 01:05:19;;;;;;;6.95;5.82;;;6.40;88.80;;;;;;5115315;28;20282;-56
2021/12/13 01:08:42;;;;;;;9.55;6.78;;;6.50;88.70;;;;;;5115264;28;20208;-56
2021/12/13 01:11:20;;;;;;;10.82;6.95;;;6.60;88.50;;;;;;5115216;28;20203;-56
2021/12/13 01:13:54;;;;;;;6.97;6.22;;;6.40;88.60;;;;;;5115059;28;20242;-56
2021/12/13 01:16:36;;;;;;;9.40;7.80;;;6.40;88.30;;;;;;5115154;28;20290;-56
2021/12/13 01:19:30;;;;;;;10.93;8.85;;;6.40;88.20;;;;;;5113629;28;20203;-60
2021/12/13 01:22:26;;;;;;;10.52;7.90;;;6.50;87.70;;;;;;5114641;28;20223;-57
2021/12/13 01:27:49;;;;;;;12.35;8.65;;;6.40;87.00;;;;;;5098772;28;20195;-56
2021/12/13 01:30:20;;;;;;;13.85;8.30;;;6.40;87.10;;;;;;5114595;28;20203;-58
2021/12/13 01:32:51;;;;;;;10.15;7.90;;;6.30;87.60;;;;;;5113447;28;20662;-57
2021/12/13 01:35:23;;;;;;;13.18;8.00;;;6.30;87.50;;;;;;5114920;28;20294;-57
2021/12/13 01:37:53;;;;;;;11.65;7.85;;;6.10;88.30;;;;;;5114672;28;20202;-58
2021/12/13 01:40:25;;;;;;;14.52;9.35;;;6.10;88.50;;;;;;5114539;28;20238;-57
2021/12/13 01:43:00;;;;;;;13.52;9.35;;;6.00;88.50;;;;;;5114346;28;20660;-57
2021/12/13 01:45:29;;;;;;;14.07;9.80;;;6.00;88.60;;;;;;5114556;28;20277;-57
2021/12/13 01:47:57;;;;;;;17.67;10.40;;;6.00;88.70;;;;;;5112916;28;20210;-57
2021/12/13 01:50:31;;;;;;;15.35;9.40;;;5.90;89.00;;;;;;5114393;28;20225;-57
2021/12/13 01:53:01;;;;;;;15.48;9.40;;;5.90;89.40;;;;;;5114231;28;20203;-61
2021/12/13 01:55:34;;;;;;;15.90;9.27;;;5.80;90.30;;;;;;5114361;28;20199;-58
2021/12/13 01:58:19;;;;;;;14.25;8.57;;;5.80;90.40;;;;;;5114419;28;20199;-57
2021/12/13 02:03:45;;;;;;;18.52;9.80;;;5.80;90.30;;;;;;5112415;28;20264;-57
2021/12/13 02:06:16;;;;;;;13.80;8.45;;;5.70;90.40;;;;;;5114134;27;20206;-58
2021/12/13 02:08:43;;;;;;;17.63;9.00;;;5.60;90.70;;;;;;5114000;28;20629;-60
2021/12/13 02:11:10;;;;;;;15.38;9.02;;;5.60;91.00;;;;;;5114027;28;20214;-56
2021/12/13 02:13:41;;;;;;;13.70;8.80;;;5.50;91.40;;;;;;5114032;28;20623;-57
2021/12/13 02:18:55;;;;;;;15.50;9.18;;;5.30;92.50;;;;;;5089298;28;20278;-59
2021/12/13 02:21:27;;;;;;;17.63;8.40;;;5.30;92.60;;;;;;5113876;28;20286;-57
2021/12/13 02:23:59;;;;;;;17.83;10.40;;;5.40;92.60;;;;;;5113815;28;20238;-57
2021/12/13 02:26:29;;;;;;;19.00;10.75;;;5.30;92.60;;;;;;5113663;28;20207;-57
2021/12/13 02:29:04;;;;;;;18.83;10.68;;;5.40;92.80;;;;;;5113714;28;20210;-57
2021/12/13 02:31:35;;;;;;;16.55;9.98;;;5.50;92.40;;;;;;5113592;28;20222;-57
2021/12/13 02:34:06;;;;;;;19.60;11.15;;;5.50;92.00;;;;;;5112263;28;20286;-57
2021/12/13 02:36:36;;;;;;;30.27;12.30;;;5.60;91.70;;;;;;5113580;28;20217;-58
2021/12/13 02:39:09;;;;;;;24.80;12.20;;;5.50;91.80;;;;;;5113465;28;20627;-62
2021/12/13 02:41:38;;;;;;;31.45;12.73;;;5.50;92.00;;;;;;5113351;28;20315;-58
2021/12/13 02:44:09;;;;;;;24.75;12.45;;;5.50;92.00;;;;;;5113326;28;20558;-61
2021/12/13 02:46:38;;;;;;;30.13;12.77;;;5.60;92.00;;;;;;5113345;28;20219;-58
2021/12/13 02:49:08;;;;;;;34.28;13.68;;;5.60;91.90;;;;;;5112026;28;20639;-59
2021/12/13 02:51:39;;;;;;;22.63;12.90;;;5.50;91.70;;;;;;5113289;28;20202;-57
2021/12/13 02:54:10;;;;;;;35.47;15.23;;;5.50;91.70;;;;;;5113314;28;20214;-56
2021/12/13 02:56:45;;;;;;;43.50;13.25;;;5.50;91.80;;;;;;5113199;28;20195;-60
2021/12/13 02:59:13;;;;;;;20.15;10.43;;;5.50;91.90;;;;;;5112862;28;20223;-60
2021/12/13 03:01:43;;;;;;;23.20;12.35;;;5.50;92.00;;;;;;5113240;28;20199;-56
2021/12/13 03:04:14;;;;;;;23.05;11.55;;;5.50;92.00;;;;;;5111917;28;20204;-56
2021/12/13 03:06:48;;;;;;;48.70;16.08;;;5.50;92.00;;;;;;5113244;28;20669;-54
2021/12/13 03:09:19;;;;;;;55.95;16.75;;;5.50;92.00;;;;;;5113247;28;20198;-55
2021/12/13 03:11:48;;;;;;;23.73;12.13;;;5.50;92.00;;;;;;5113181;28;20203;-58
2021/12/13 03:14:19;;;;;;;27.10;13.07;;;5.50;92.00;;;;;;5113139;28;20286;-55
2021/12/13 03:16:51;;;;;;;28.80;14.48;;;5.50;92.10;;;;;;5113097;28;20304;-54
2021/12/13 03:19:30;;;;;;;30.38;13.15;;;5.50;92.10;;;;;;5111798;28;20289;-56
2021/12/13 03:22:30;;;;;;;31.08;13.10;;;5.50;92.10;;;;;;5113108;28;20211;-55
2021/12/13 03:25:11;;;;;;;24.95;11.95;;;5.40;92.20;;;;;;5112941;28;20199;-55
2021/12/13 03:27:57;;;;;;;23.27;11.73;;;5.40;92.30;;;;;;5112960;28;20211;-56
2021/12/13 03:30:28;;;;;;;24.58;11.80;;;5.40;92.50;;;;;;5112893;28;20237;-55
2021/12/13 03:32:59;;;;;;;28.70;12.85;;;5.40;92.60;;;;;;5111753;28;20392;-55
2021/12/13 03:35:36;;;;;;;25.77;12.50;;;5.40;92.60;;;;;;5112868;28;20669;-55
2021/12/13 03:38:07;;;;;;;25.13;13.82;;;5.40;92.60;;;;;;5112968;28;20205;-55
2021/12/13 03:40:36;;;;;;;28.60;12.68;;;5.50;92.50;;;;;;5112833;28;20705;-55
2021/12/13 03:43:09;;;;;;;20.73;10.35;;;5.50;92.50;;;;;;5112708;28;20328;-54
2021/12/13 03:45:39;;;;;;;26.90;11.73;;;5.60;92.40;;;;;;5112802;28;20210;-55
2021/12/13 03:48:08;;;;;;;18.10;10.50;;;5.50;92.20;;;;;;5111602;28;20209;-55
2021/12/13 03:50:39;;;;;;;27.98;12.30;;;5.60;92.40;;;;;;5112932;28;20202;-57
2021/12/13 03:53:11;;;;;;;21.85;11.65;;;5.70;92.30;;;;;;5112958;28;20695;-55
2021/12/13 03:55:43;;;;;;;17.10;10.80;;;5.80;92.00;;;;;;5112773;28;20636;-55
2021/12/13 03:58:14;;;;;;;18.05;10.77;;;5.80;91.60;;;;;;5112662;28;20204;-55
2021/12/13 04:00:46;;;;;;;18.67;11.48;;;5.80;91.70;;;;;;5112831;28;20207;-57
2021/12/13 04:03:17;;;;;;;19.08;11.88;;;5.80;91.60;;;;;;5111352;28;20257;-57
2021/12/13 04:05:45;;;;;;;15.52;10.20;;;5.80;91.00;;;;;;5112773;28;20221;-55
2021/12/13 04:08:14;;;;;;;19.10;10.98;;;5.80;90.80;;;;;;5112688;28;20204;-58
2021/12/13 04:10:45;;;;;;;18.67;11.48;;;5.80;90.90;;;;;;5113857;28;20564;-56
2021/12/13 04:13:15;;;;;;;16.33;10.93;;;5.80;91.10;;;;;;5116462;28;20217;-57
2021/12/13 04:15:57;;;;;;;15.85;10.23;;;5.90;91.20;;;;;;5116388;28;20241;-57
2021/12/13 04:18:40;;;;;;;21.38;10.63;;;6.00;91.30;;;;;;5114933;28;20204;-56
2021/12/13 04:21:08;;;;;;;14.65;8.75;;;6.10;90.80;;;;;;5116051;28;20199;-56
2021/12/13 04:23:36;;;;;;;17.35;9.55;;;6.00;90.60;;;;;;5116043;28;20237;-54
2021/12/13 04:26:07;;;;;;;15.77;9.70;;;6.20;90.90;;;;;;5116195;27;20206;-55
2021/12/13 04:28:38;;;;;;;12.50;9.05;;;6.30;90.70;;;;;;5116284;28;20202;-56
2021/12/13 04:31:08;;;;;;;13.88;9.40;;;6.40;90.60;;;;;;5116142;28;20221;-56
2021/12/13 04:33:38;;;;;;;15.30;10.13;;;6.50;90.20;;;;;;5114601;28;20203;-57
2021/12/13 04:36:08;;;;;;;13.77;9.35;;;6.50;89.90;;;;;;5116054;28;20227;-55
2021/12/13 04:38:47;;;;;;;13.65;9.20;;;6.50;89.30;;;;;;5116055;28;20200;-56
2021/12/13 04:41:22;;;;;;;10.95;8.68;;;6.50;89.60;;;;;;5116028;28;20634;-56
2021/12/13 04:43:49;;;;;;;12.75;9.27;;;6.60;89.80;;;;;;5115786;28;20245;-56
2021/12/13 04:46:19;;;;;;;13.93;8.93;;;6.70;89.70;;;;;;5115737;28;20199;-57
2021/12/13 04:48:47;;;;;;;11.32;8.27;;;6.80;89.20;;;;;;5114469;28;20200;-57
2021/12/13 04:51:17;;;;;;;13.02;9.50;;;6.70;88.00;;;;;;5115746;28;20206;-56
2021/12/13 04:53:47;;;;;;;10.85;7.68;;;6.60;87.70;;;;;;5115618;27;20204;-56
2021/12/13 04:56:26;;;;;;;10.63;7.28;;;6.50;87.60;;;;;;5115604;28;20261;-56
2021/12/13 04:58:57;;;;;;;7.00;6.28;;;6.30;88.00;;;;;;5115445;28;20294;-56
2021/12/13 05:01:25;;;;;;;6.18;5.53;;;6.30;88.30;;;;;;5115525;28;20203;-56
2021/12/13 05:03:56;;;;;;;6.22;5.10;;;6.30;88.20;;;;;;5114071;28;20237;-56
2021/12/13 05:06:25;;;;;;;6.63;6.03;;;6.40;88.60;;;;;;5115483;28;20286;-56
2021/12/13 05:08:56;;;;;;;8.10;6.30;;;6.50;89.20;;;;;;5115522;28;20210;-58
2021/12/13 05:11:29;;;;;;;7.00;6.30;;;6.70;89.10;;;;;;5115427;28;20249;-58
2021/12/13 05:13:58;;;;;;;7.45;6.28;;;6.80;89.00;;;;;;5115399;28;20199;-56
2021/12/13 05:16:36;;;;;;;7.88;6.40;;;6.90;88.50;;;;;;5115376;28;20669;-58
2021/12/13 05:19:06;;;;;;;9.48;7.05;;;6.90;88.20;;;;;;5113921;28;20300;-58
2021/12/13 05:21:36;;;;;;;9.10;7.90;;;7.00;88.20;;;;;;5115017;27;20290;-58
2021/12/13 05:24:05;;;;;;;9.85;8.20;;;7.00;88.00;;;;;;5114793;28;20729;-57
2021/12/13 05:26:37;;;;;;;9.93;8.82;;;7.00;87.70;;;;;;5115088;27;20290;-56
2021/12/13 05:29:06;;;;;;;9.80;8.80;;;6.90;87.50;;;;;;5115004;28;20294;-56
2021/12/13 05:31:34;;;;;;;10.63;8.23;;;6.90;87.50;;;;;;5115012;28;20207;-56
2021/12/13 05:34:04;;;;;;;9.95;8.10;;;6.80;87.70;;;;;;5113627;27;20199;-57
2021/12/13 05:36:34;;;;;;;7.93;7.13;;;6.70;87.80;;;;;;5114732;28;20196;-56
2021/12/13 05:39:08;;;;;;;9.70;8.50;;;6.60;88.50;;;;;;5114803;28;20315;-57
2021/12/13 05:41:38;;;;;;;10.82;8.75;;;6.60;88.90;;;;;;5114783;28;20289;-58
2021/12/13 05:44:08;;;;;;;9.23;8.05;;;6.70;89.10;;;;;;5114538;28;20254;-58
2021/12/13 05:46:38;;;;;;;11.20;8.63;;;6.70;88.80;;;;;;5114589;27;20290;-58
2021/12/13 05:49:08;;;;;;;9.73;7.70;;;6.80;88.90;;;;;;5113347;28;20556;-58
2021/12/13 05:51:38;;;;;;;11.48;9.20;;;6.90;88.70;;;;;;5114605;28;20205;-58
2021/12/13 05:54:08;;;;;;;10.73;8.95;;;7.00;88.10;;;;;;5114603;28;20570;-59
2021/12/13 05:56:41;;;;;;;10.38;9.00;;;7.00;87.80;;;;;;5114543;28;20678;-56
2021/12/13 05:59:16;;;;;;;11.50;8.77;;;6.90;87.50;;;;;;5114393;28;20202;-57
2021/12/13 06:02:01;;;;;;;9.50;8.13;;;6.90;87.30;;;;;;5114386;28;20203;-57
2021/12/13 06:04:38;;;;;;;14.27;8.63;;;6.90;87.80;;;;;;5112908;28;20322;-56
2021/12/13 06:07:19;;;;;;;9.60;8.05;;;6.90;87.20;;;;;;5114283;28;20209;-56
2021/12/13 06:09:55;;;;;;;10.82;9.13;;;6.80;87.40;;;;;;5114027;28;20290;-58
2021/12/13 06:12:34;;;;;;;10.75;9.45;;;6.70;87.70;;;;;;5114200;28;20234;-56
2021/12/13 06:15:27;;;;;;;13.38;9.50;;;6.70;87.60;;;;;;5114099;28;20199;-56
2021/12/13 06:18:08;;;;;;;12.52;9.30;;;6.70;87.80;;;;;;5112759;28;20239;-56
2021/12/13 06:20:39;;;;;;;13.38;9.40;;;6.70;87.80;;;;;;5114052;28;20249;-56
2021/12/13 06:23:09;;;;;;;15.50;10.68;;;6.60;87.90;;;;;;5113964;28;20318;-56
2021/12/13 06:25:37;;;;;;;14.48;10.98;;;6.60;87.50;;;;;;5113883;28;20200;-59
2021/12/13 06:28:08;;;;;;;14.23;10.40;;;6.60;87.60;;;;;;5113793;28;20627;-56
2021/12/13 06:30:38;;;;;;;16.58;11.40;;;6.50;87.80;;;;;;5113662;28;20199;-56
2021/12/13 06:33:07;;;;;;;14.38;10.50;;;6.40;88.40;;;;;;5112411;28;20199;-58
2021/12/13 06:35:45;;;;;;;13.32;9.77;;;6.40;88.70;;;;;;5113005;28;20658;-58
2021/12/13 06:38:36;;;;;;;12.73;9.50;;;6.30;89.00;;;;;;5113680;28;20202;-58
2021/12/13 06:41:23;;;;;;;19.73;11.93;;;6.10;90.10;;;;;;5113521;28;20203;-57
2021/12/13 06:43:55;;;;;;;15.77;11.63;;;6.20;90.30;;;;;;5106139;28;20249;-58
2021/12/13 06:46:49;;;;;;;26.67;11.90;;;6.30;89.40;;;;;;5113414;28;20729;-59
2021/12/13 06:49:24;;;;;;;21.13;12.63;;;6.30;89.60;;;;;;5112059;28;20646;-57
2021/12/13 06:51:55;;;;;;;20.95;12.10;;;6.30;89.10;;;;;;5113618;28;20225;-57
2021/12/13 06:54:32;;;;;;;22.20;12.63;;;6.40;89.50;;;;;;5113477;28;20207;-57
2021/12/13 06:57:03;;;;;;;15.95;11.10;;;6.40;89.60;;;;;;5113391;28;20666;-57
2021/12/13 06:59:34;;;;;;;15.68;10.85;;;6.50;89.10;;;;;;5113450;28;20298;-59
2021/12/13 07:02:11;;;;;;;13.52;10.10;;;6.40;89.50;;;;;;5113291;28;20295;-57
2021/12/13 07:04:55;;;;;;;19.50;11.18;;;6.30;90.10;;;;;;5112028;28;20233;-57
2021/12/13 07:07:25;;;;;;;20.55;11.95;;;6.40;90.00;;;;;;5113289;28;20203;-57
2021/12/13 07:09:56;;;;;;;15.77;10.88;;;6.50;89.60;;;;;;5113204;28;20294;-58
2021/12/13 07:12:25;;;;;;;18.33;11.88;;;6.60;89.60;;;;;;5113104;28;20203;-57
2021/12/13 07:14:54;;;;;;;16.98;10.43;;;6.70;89.80;;;;;;5113238;28;20203;-57
2021/12/13 07:17:27;;;;;;;17.63;11.88;;;6.80;89.50;;;;;;5111787;28;20207;-57
2021/12/13 07:19:54;;;;;;;20.88;12.50;;;6.90;89.00;;;;;;5113281;28;20203;-58
2021/12/13 07:22:24;;;;;;;21.85;12.15;;;6.90;88.80;;;;;;5113181;28;20209;-58
2021/12/13 07:24:54;;;;;;;22.35;13.30;;;7.00;88.70;;;;;;5112886;28;20234;-59
2021/12/13 07:27:24;;;;;;;24.58;13.77;;;7.00;88.60;;;;;;5113134;28;20282;-59
2021/12/13 07:29:55;;;;;;;22.20;13.60;;;7.00;88.20;;;;;;5113102;28;20296;-56
2021/12/13 07:32:25;;;;;;;22.83;12.98;;;6.90;88.10;;;;;;5111827;28;20303;-59
2021/12/13 07:35:01;;;;;;;22.45;14.05;;;6.90;88.10;;;;;;5113157;28;20213;-58
2021/12/13 07:37:44;;;;;;;24.15;14.25;;;6.90;88.00;;;;;;5112949;28;20194;-58
2021/12/13 07:40:21;;;;;;;23.38;13.07;;;6.80;88.30;;;;;;5113137;28;20315;-59
2021/12/13 07:43:04;;;;;;;21.20;12.60;;;6.70;88.80;;;;;;5112806;28;20237;-59
2021/12/13 07:45:35;;;;;;;18.80;11.68;;;6.70;89.00;;;;;;5113946;28;20233;-57
2021/12/13 07:48:07;;;;;;;21.45;13.10;;;6.50;89.60;;;;;;5115562;28;20206;-58
2021/12/13 07:50:35;;;;;;;23.27;11.40;;;6.40;90.40;;;;;;5117084;28;20562;-59
2021/12/13 07:53:06;;;;;;;17.63;10.80;;;6.50;90.20;;;;;;5116779;28;20242;-58
2021/12/13 07:55:33;;;;;;;22.35;12.32;;;6.40;90.20;;;;;;5116970;28;20207;-62
2021/12/13 07:58:04;;;;;;;15.63;10.23;;;6.30;90.90;;;;;;5116723;28;20195;-57
2021/12/13 08:00:37;;;;;;;20.13;11.70;;;6.30;91.10;;;;;;5116691;28;20753;-59
2021/12/13 08:03:07;;;;;;;23.88;13.50;;;6.30;91.60;;;;;;5115288;28;20203;-57
2021/12/13 08:05:41;;;;;;;20.73;12.07;;;6.40;91.50;;;;;;5116557;28;20322;-58
2021/12/13 08:08:16;;;;;;;26.88;14.27;;;6.60;91.10;;;;;;5116563;28;20200;-61
2021/12/13 08:10:44;;;;;;;30.33;12.88;;;6.70;90.50;;;;;;5116447;28;20569;-61
2021/12/13 08:13:15;;;;;;;21.02;12.88;;;6.80;89.70;;;;;;5116565;28;20245;-58
2021/12/13 08:15:46;;;;;;;25.85;14.30;;;6.80;89.50;;;;;;5116442;28;20616;-62
2021/12/13 08:18:24;;;;;;;24.67;14.32;;;6.90;89.40;;;;;;5115016;28;20206;-58
2021/12/13 08:20:54;;;;;;;23.73;14.43;;;6.90;89.70;;;;;;5116389;28;20626;-58
2021/12/13 08:23:24;;;;;;;29.05;14.38;;;7.00;89.60;;;;;;5116139;28;20730;-57
2021/12/13 08:25:58;;;;;;;29.85;14.57;;;7.10;89.40;;;;;;5116600;28;20206;-57
2021/12/13 08:28:36;;;;;;;29.25;14.57;;;7.20;89.00;;;;;;5116315;28;20629;-58
2021/12/13 08:31:06;;;;;;;33.13;15.63;;;7.20;88.90;;;;;;5116060;28;20662;-58
2021/12/13 08:33:37;;;;;;;24.23;15.00;;;7.30;88.70;;;;;;5114569;28;20214;-57
2021/12/13 08:36:09;;;;;;;27.25;13.82;;;7.30;88.60;;;;;;5115931;28;20277;-59
2021/12/13 08:38:41;;;;;;;32.22;15.43;;;7.30;88.60;;;;;;5115796;28;20314;-57
2021/12/13 08:41:22;;;;;;;23.40;13.43;;;7.30;88.60;;;;;;5116047;28;20199;-57
2021/12/13 08:43:55;;;;;;;28.45;13.88;;;7.30;88.50;;;;;;5115493;28;20239;-57
2021/12/13 08:46:43;;;;;;;33.22;15.98;;;7.10;89.20;;;;;;5115688;28;20298;-57
2021/12/13 08:49:17;;;;;;;27.95;14.90;;;7.10;89.80;;;;;;5114292;28;20286;-57
2021/12/13 08:51:56;;;;;;;28.60;14.90;;;7.20;89.30;;;;;;5115646;28;20205;-57
2021/12/13 08:54:35;;;;;;;33.70;15.90;;;7.20;88.90;;;;;;5115398;28;20199;-59
2021/12/13 08:57:03;;;;;;;25.27;15.60;;;7.10;88.90;;;;;;5114682;28;20238;-58
2021/12/13 08:59:30;;;;;;;28.40;15.75;;;7.10;89.20;;;;;;5115535;28;20211;-58
2021/12/13 09:02:03;;;;;;;30.85;14.75;;;7.10;90.00;;;;;;5115451;28;20245;-57
2021/12/13 09:04:35;;;;;;;39.42;18.02;;;7.10;90.00;;;;;;5114086;28;20227;-58
2021/12/13 09:07:06;;;;;;;31.30;17.20;;;7.10;89.70;;;;;;5115400;28;20302;-57
2021/12/13 09:09:34;;;;;;;38.10;19.92;;;7.10;89.60;;;;;;5115395;28;20199;-59
2021/12/13 09:12:03;;;;;;;32.63;15.93;;;7.10;89.50;;;;;;5115318;28;20199;-57
2021/12/13 09:14:39;;;;;;;37.90;19.13;;;7.10;89.80;;;;;;5115384;28;20260;-57
2021/12/13 09:17:13;;;;;;;30.35;17.58;;;7.10;90.20;;;;;;5115090;28;20669;-58
2021/12/13 09:19:54;;;;;;;39.47;17.10;;;7.20;90.00;;;;;;5113745;28;20214;-58
2021/12/13 09:22:26;;;;;;;45.55;20.25;;;7.20;89.70;;;;;;5115217;28;20290;-58
2021/12/13 09:24:56;;;;;;;34.40;18.45;;;7.20;89.50;;;;;;5114883;28;20322;-58
2021/12/13 09:27:43;;;;;;;46.03;20.85;;;7.20;89.80;;;;;;5115016;28;20199;-58
2021/12/13 09:30:34;;;;;;;34.42;18.40;;;7.20;90.20;;;;;;5114832;28;20265;-57
2021/12/13 09:33:08;;;;;;;28.85;16.83;;;7.20;90.50;;;;;;5113593;28;20216;-58
2021/12/13 09:35:45;;;;;;;37.55;19.70;;;7.30;90.60;;;;;;5114879;28;20209;-58
2021/12/13 09:38:44;;;;;;;43.25;19.08;;;7.40;90.50;;;;;;5114601;28;20236;-58
2021/12/13 09:41:27;;;;;;;29.23;16.98;;;7.40;90.20;;;;;;5114746;28;20241;-58
2021/12/13 09:43:58;;;;;;;28.42;15.80;;;7.50;90.30;;;;;;5114412;28;20633;-58
2021/12/13 09:46:33;;;;;;;35.67;17.67;;;7.50;90.90;;;;;;5114620;28;20290;-58
2021/12/13 09:49:07;;;;;;;37.53;18.50;;;7.50;91.30;;;;;;5113306;28;20209;-57
2021/12/13 09:51:43;;;;;;;36.35;19.08;;;7.50;91.20;;;;;;5114618;28;20286;-58
2021/12/13 09:54:12;;;;;;;37.67;18.30;;;7.60;90.80;;;;;;5114450;28;20573;-58
2021/12/13 09:56:49;;;;;;;37.58;18.85;;;7.70;90.40;;;;;;5114490;28;20657;-58
2021/12/13 09:59:21;;;;;;;30.20;18.67;;;7.80;90.30;;;;;;5114268;28;20286;-58
2021/12/13 10:01:49;;;;;;;36.00;17.20;;;7.80;90.20;;;;;;5114527;28;20563;-59
2021/12/13 10:04:20;;;;;;;29.27;15.93;;;7.80;90.10;;;;;;5112945;28;20538;-57
2021/12/13 10:06:51;;;;;;;27.30;15.15;;;7.80;90.00;;;;;;5114155;28;20582;-62
2021/12/13 10:09:22;;;;;;;27.60;13.60;;;7.80;90.40;;;;;;5114103;28;20206;-58
2021/12/13 10:11:53;;;;;;;22.58;14.43;;;7.90;90.40;;;;;;5114077;28;20294;-58
2021/12/13 10:14:26;;;;;;;25.67;14.48;;;7.80;90.40;;;;;;5114069;28;20207;-57
2021/12/13 10:16:56;;;;;;;27.98;15.07;;;7.80;91.00;;;;;;5113981;28;20236;-57
2021/12/13 10:19:28;;;;;;;25.77;13.15;;;7.90;90.90;;;;;;5112951;28;20210;-57
2021/12/13 10:21:55;;;;;;;19.80;10.98;;;8.10;90.80;;;;;;5113843;28;20210;-56
2021/12/13 10:24:31;;;;;;;21.15;10.93;;;8.20;90.40;;;;;;5113669;28;20828;-57
2021/12/13 10:27:01;;;;;;;18.45;11.20;;;8.30;90.40;;;;;;5113953;28;20245;-57
2021/12/13 10:29:28;;;;;;;19.08;11.85;;;8.30;90.40;;;;;;5113847;28;20734;-57
2021/12/13 10:31:59;;;;;;;17.02;9.57;;;8.40;90.30;;;;;;5113726;28;20204;-61
2021/12/13 10:34:30;;;;;;;13.73;9.85;;;8.50;89.90;;;;;;5112407;28;20268;-57
2021/12/13 10:37:03;;;;;;;15.90;9.35;;;8.50;89.70;;;;;;5113571;28;20566;-57
2021/12/13 10:39:34;;;;;;;13.82;9.07;;;8.50;89.90;;;;;;5113599;28;20203;-60
2021/12/13 10:42:04;;;;;;;27.00;12.68;;;8.40;89.60;;;;;;5113584;28;20211;-57
2021/12/13 10:44:31;;;;;;;18.58;11.30;;;8.50;90.00;;;;;;5113343;28;20235;-57
2021/12/13 10:47:05;;;;;;;16.70;10.13;;;8.60;89.70;;;;;;5113538;28;20205;-57
2021/12/13 10:49:36;;;;;;;17.52;10.93;;;8.50;89.60;;;;;;5112046;28;20233;-57
2021/12/13 10:52:07;;;;;;;16.52;9.90;;;8.60;89.90;;;;;;5113306;28;20885;-61
2021/12/13 10:54:41;;;;;;;18.77;10.05;;;8.70;89.60;;;;;;5113520;28;20294;-57
2021/12/13 10:57:12;;;;;;;18.88;10.68;;;8.70;89.80;;;;;;5113379;28;20203;-57
2021/12/13 10:59:39;;;;;;;18.15;10.18;;;8.70;89.30;;;;;;5113257;28;20745;-63
2021/12/13 11:02:11;;;;;;;18.33;9.77;;;8.70;89.70;;;;;;5113344;28;20286;-57
2021/12/13 11:04:44;;;;;;;15.77;9.65;;;8.70;90.00;;;;;;5111649;28;20229;-61
2021/12/13 11:07:13;;;;;;;12.38;7.88;;;8.80;89.70;;;;;;5113268;28;20286;-57
2021/12/13 11:09:42;;;;;;;15.95;8.90;;;8.80;89.60;;;;;;5113354;28;20644;-57
2021/12/13 11:12:13;;;;;;;12.07;8.43;;;8.80;89.90;;;;;;5113261;28;20207;-56
2021/12/13 11:14:43;;;;;;;8.88;7.03;;;8.80;90.00;;;;;;5113150;28;20206;-56
2021/12/13 11:17:14;;;;;;;11.32;7.53;;;8.80;90.00;;;;;;5113272;28;20294;-59
2021/12/13 11:19:47;;;;;;;13.70;8.02;;;8.70;90.30;;;;;;5111985;28;20199;-57
2021/12/13 11:22:17;;;;;;;10.50;7.40;;;8.70;91.20;;;;;;5117373;28;20221;-57
2021/12/13 11:24:47;;;;;;;14.80;8.68;;;8.60;91.20;;;;;;5117044;28;20697;-57
2021/12/13 11:27:17;;;;;;;14.40;9.27;;;8.50;91.70;;;;;;5117429;28;20258;-58
2021/12/13 11:29:46;;;;;;;21.35;10.20;;;8.50;92.30;;;;;;5117161;28;20249;-61
2021/12/13 11:32:43;;;;;;;13.35;7.90;;;8.70;92.00;;;;;;5117258;28;20206;-59
2021/12/13 11:35:43;;;;;;;13.93;8.20;;;8.90;91.40;;;;;;5117083;28;20207;-57
2021/12/13 11:38:26;;;;;;;11.70;7.95;;;9.00;90.20;;;;;;5114739;28;20233;-57
2021/12/13 11:41:20;;;;;;;14.45;8.60;;;9.10;90.30;;;;;;5117068;28;20199;-57
2021/12/13 11:44:10;;;;;;;12.82;7.78;;;9.20;90.10;;;;;;5116895;28;20262;-57
2021/12/13 11:47:11;;;;;;;10.93;7.43;;;9.40;89.90;;;;;;5116941;28;20231;-57
2021/12/13 11:50:19;;;;;;;11.90;7.30;;;9.50;89.40;;;;;;5115529;28;20199;-58
2021/12/13 11:53:18;;;;;;;11.32;7.68;;;9.60;89.20;;;;;;5116906;28;20207;-57
2021/12/13 11:56:07;;;;;;;11.68;6.97;;;9.40;87.80;;;;;;5116695;28;20669;-57
2021/12/13 11:59:26;;;;;;;8.75;5.50;;;9.30;88.50;;;;;;5116814;27;20200;-57
2021/12/13 12:02:01;;;;;;;8.52;5.65;;;9.30;88.80;;;;;;5053751;28;20288;-59
2021/12/13 12:05:06;;;;;;;9.13;6.38;;;9.10;89.20;;;;;;5113721;27;20562;-62
2021/12/13 12:07:59;;;;;;;10.93;7.75;;;9.10;89.50;;;;;;5116570;28;20615;-57
2021/12/13 12:10:53;;;;;;;8.43;6.53;;;9.20;89.50;;;;;;5116584;28;20200;-62
2021/12/13 12:13:31;;;;;;;8.38;5.38;;;9.20;88.90;;;;;;5116431;28;20213;-56
2021/12/13 12:16:02;;;;;;;7.85;5.20;;;9.30;89.10;;;;;;5116282;28;20727;-57
2021/12/13 12:18:31;;;;;;;9.32;5.93;;;9.40;88.60;;;;;;5115038;28;20282;-56
2021/12/13 12:21:37;;;;;;;7.18;6.28;;;9.40;88.10;;;;;;5116189;28;20728;-57
2021/12/13 12:24:07;;;;;;;10.50;7.18;;;9.30;88.50;;;;;;5098153;28;20696;-57
2021/12/13 12:26:35;;;;;;;9.00;6.20;;;9.20;88.30;;;;;;5116287;28;20238;-58
2021/12/13 12:29:09;;;;;;;7.75;6.18;;;9.10;88.90;;;;;;5116190;28;20282;-59
2021/12/13 12:31:38;;;;;;;10.07;6.68;;;9.30;89.30;;;;;;5114989;28;20226;-57
2021/12/13 12:34:06;;;;;;;8.07;6.90;;;9.50;89.30;;;;;;5114575;28;20203;-57
2021/12/13 12:36:48;;;;;;;10.73;7.32;;;9.60;87.90;;;;;;5115922;28;20234;-58
2021/12/13 12:39:55;;;;;;;8.68;5.40;;;9.60;87.90;;;;;;5115730;28;20199;-57
2021/12/13 12:42:31;;;;;;;8.95;6.15;;;9.40;87.90;;;;;;5115737;28;20205;-60
2021/12/13 12:45:11;;;;;;;9.45;6.50;;;9.50;88.90;;;;;;5115835;27;20195;-57
2021/12/13 12:48:10;;;;;;;8.23;6.40;;;9.70;88.80;;;;;;5114518;28;20243;-57
2021/12/13 12:50:42;;;;;;;8.77;6.45;;;9.70;88.50;;;;;;5115800;28;20195;-57
2021/12/13 12:53:13;;;;;;;7.63;6.20;;;9.90;88.40;;;;;;5115848;28;20210;-57
2021/12/13 12:55:44;;;;;;;7.40;6.13;;;10.00;88.00;;;;;;5115708;28;20228;-57
2021/12/13 12:58:14;;;;;;;9.73;6.82;;;10.00;86.80;;;;;;5115663;27;20206;-57
2021/12/13 13:00:45;;;;;;;9.35;6.95;;;10.00;87.30;;;;;;5115455;28;20284;-59
2021/12/13 13:03:16;;;;;;;10.35;8.10;;;10.10;87.00;;;;;;5114173;28;20203;-57
2021/12/13 13:05:43;;;;;;;14.43;8.18;;;9.90;85.70;;;;;;5115373;27;20233;-58
2021/12/13 13:08:10;;;;;;;12.60;8.10;;;9.70;87.00;;;;;;5115354;28;20203;-58
2021/12/13 13:10:49;;;;;;;14.23;9.80;;;9.80;87.60;;;;;;5115328;28;20195;-57
2021/12/13 13:13:18;;;;;;;14.48;9.25;;;9.60;87.40;;;;;;5115225;28;20199;-59
2021/12/13 13:15:48;;;;;;;13.27;8.68;;;9.50;88.10;;;;;;5115234;28;20307;-57
2021/12/13 13:18:18;;;;;;;10.93;8.05;;;9.40;88.30;;;;;;5113924;28;20203;-60
2021/12/13 13:20:51;;;;;;;17.52;9.93;;;9.30;88.70;;;;;;5115184;27;20207;-57
2021/12/13 13:23:20;;;;;;;11.73;7.75;;;9.30;88.90;;;;;;5115208;28;20294;-57
2021/12/13 13:25:50;;;;;;;13.45;9.45;;;9.30;89.30;;;;;;5114880;28;20227;-57
2021/12/13 13:28:23;;;;;;;16.45;9.70;;;9.20;89.10;;;;;;5115018;28;20290;-57